createdAt,value
2022-10-18T00:00:59.190Z,100.00
2022-10-18T00:03:26.369Z,100.00
2022-10-18T00:05:53.953Z,100.00
2022-10-18T00:08:21.524Z,100.00
2022-10-18T00:10:49.095Z,100.00
2022-10-18T00:13:16.454Z,100.00
2022-10-18T00:15:59.430Z,100.00
2022-10-18T00:18:27.643Z,100.00
2022-10-18T00:21:06.403Z,100.00
2022-10-18T00:23:35.104Z,100.00
2022-10-18T00:26:26.748Z,100.00
2022-10-18T00:29:02.392Z,100.00
2022-10-18T00:31:36.993Z,100.00
2022-10-18T00:34:12.430Z,100.00
2022-10-18T00:36:39.732Z,100.00
2022-10-18T00:39:09.364Z,100.00
2022-10-18T00:41:38.063Z,100.00
2022-10-18T00:44:27.267Z,100.00
2022-10-18T00:47:01.642Z,100.00
2022-10-18T00:49:37.847Z,100.00
2022-10-18T00:52:24.406Z,100.00
2022-10-18T00:54:53.144Z,100.00
2022-10-18T00:57:20.877Z,100.00
2022-10-18T00:59:48.305Z,100.00
2022-10-18T01:02:18.186Z,100.00
2022-10-18T01:04:49.416Z,100.00
2022-10-18T01:07:25.763Z,100.00
2022-10-18T01:10:08.195Z,100.00
2022-10-18T01:13:05.923Z,100.00
2022-10-18T01:15:57.818Z,100.00
2022-10-18T01:18:34.725Z,100.00
2022-10-18T01:21:04.678Z,100.00
2022-10-18T01:24:18.263Z,100.00
2022-10-18T01:27:00.530Z,100.00
2022-10-18T01:29:49.630Z,100.00
2022-10-18T01:32:23.230Z,100.00
2022-10-18T01:34:55.898Z,100.00
2022-10-18T01:37:24.047Z,100.00
2022-10-18T01:39:56.709Z,100.00
2022-10-18T01:42:24.698Z,100.00
2022-10-18T01:44:53.740Z,100.00
2022-10-18T01:47:21.879Z,100.00
2022-10-18T01:49:49.125Z,100.00
2022-10-18T01:52:16.798Z,100.00
2022-10-18T01:54:51.096Z,100.00
2022-10-18T01:58:01.473Z,100.00
2022-10-18T02:01:08.283Z,100.00
2022-10-18T02:03:48.627Z,100.00
2022-10-18T02:06:29.928Z,100.00
2022-10-18T02:09:13.072Z,100.00
2022-10-18T02:11:43.383Z,100.00
2022-10-18T02:14:14.341Z,100.00
2022-10-18T02:16:46.083Z,100.00
2022-10-18T02:21:58.706Z,100.00
2022-10-18T02:24:34.894Z,100.00
2022-10-18T02:27:02.854Z,100.00
2022-10-18T02:29:30.808Z,100.00
2022-10-18T02:32:20.900Z,100.00
2022-10-18T02:34:59.149Z,100.00
2022-10-18T02:37:33.027Z,100.00
2022-10-18T02:40:00.095Z,100.00
2022-10-18T02:42:38.666Z,100.00
2022-10-18T02:45:07.023Z,100.00
2022-10-18T02:47:34.671Z,100.00
2022-10-18T02:50:02.311Z,100.00
2022-10-18T02:52:29.886Z,100.00
2022-10-18T02:54:57.183Z,100.00
2022-10-18T02:57:24.175Z,100.00
2022-10-18T02:59:51.218Z,100.00
2022-10-18T03:02:18.300Z,100.00
2022-10-18T03:04:45.608Z,100.00
2022-10-18T03:07:12.797Z,100.00
2022-10-18T03:09:39.883Z,100.00
2022-10-18T03:12:07.528Z,100.00
2022-10-18T03:14:34.542Z,100.00
2022-10-18T03:17:01.567Z,100.00
2022-10-18T03:19:28.710Z,100.00
2022-10-18T03:22:02.275Z,100.00
2022-10-18T03:24:29.665Z,100.00
2022-10-18T03:26:57.290Z,100.00
2022-10-18T03:29:24.699Z,100.00
2022-10-18T03:31:51.715Z,100.00
2022-10-18T03:34:18.739Z,100.00
2022-10-18T03:36:45.855Z,100.00
2022-10-18T03:39:13.084Z,100.00
2022-10-18T03:41:40.227Z,100.00
2022-10-18T03:44:07.481Z,100.00
2022-10-18T03:46:41.006Z,100.00
2022-10-18T03:49:08.734Z,100.00
2022-10-18T03:51:35.820Z,100.00
2022-10-18T03:54:03.104Z,100.00
2022-10-18T03:56:30.441Z,100.00
2022-10-18T03:58:57.695Z,100.00
2022-10-18T04:01:24.774Z,100.00
2022-10-18T04:03:52.031Z,100.00
2022-10-18T04:06:19.295Z,100.00
2022-10-18T04:08:46.343Z,100.00
2022-10-18T04:11:13.446Z,100.00
2022-10-18T04:13:40.442Z,100.00
2022-10-18T04:16:07.635Z,100.00
2022-10-18T04:18:34.646Z,100.00
2022-10-18T04:21:01.718Z,100.00
2022-10-18T04:23:29.028Z,100.00
2022-10-18T04:25:56.138Z,100.00
2022-10-18T04:28:23.276Z,100.00
2022-10-18T04:30:52.154Z,100.00
2022-10-18T04:33:19.781Z,100.00
2022-10-18T04:35:47.602Z,100.00
2022-10-18T04:38:14.760Z,100.00
2022-10-18T04:40:41.762Z,100.00
2022-10-18T04:43:08.914Z,100.00
2022-10-18T04:45:36.216Z,100.00
2022-10-18T04:48:03.910Z,100.00
2022-10-18T04:50:31.134Z,100.00
2022-10-18T04:52:58.156Z,100.00
2022-10-18T04:55:30.904Z,100.00
2022-10-18T04:57:58.161Z,100.00
2022-10-18T05:00:25.166Z,100.00
2022-10-18T05:02:57.930Z,100.00
2022-10-18T05:05:33.145Z,100.00
2022-10-18T05:08:13.467Z,100.00
2022-10-18T05:10:40.508Z,100.00
2022-10-18T05:13:07.499Z,100.00
2022-10-18T05:15:34.503Z,100.00
2022-10-18T05:18:01.697Z,100.00
2022-10-18T05:20:29.090Z,100.00
2022-10-18T05:22:57.934Z,100.00
2022-10-18T05:25:25.288Z,100.00
2022-10-18T05:27:52.996Z,100.00
2022-10-18T05:30:21.527Z,100.00
2022-10-18T05:32:48.549Z,100.00
2022-10-18T05:35:15.708Z,100.00
2022-10-18T05:37:42.700Z,100.00
2022-10-18T05:40:10.665Z,100.00
2022-10-18T05:42:37.681Z,100.00
2022-10-18T05:45:05.099Z,100.00
2022-10-18T05:47:32.497Z,100.00
2022-10-18T05:49:59.871Z,100.00
2022-10-18T05:52:27.263Z,100.00
2022-10-18T05:54:54.465Z,100.00
2022-10-18T05:57:21.480Z,100.00
2022-10-18T05:59:48.601Z,100.00
2022-10-18T06:02:15.812Z,100.00
2022-10-18T06:04:43.097Z,100.00
2022-10-18T06:07:11.612Z,100.00
2022-10-18T06:09:38.846Z,100.00
2022-10-18T06:12:05.900Z,100.00
2022-10-18T06:14:33.071Z,100.00
2022-10-18T06:17:00.100Z,100.00
2022-10-18T06:19:27.082Z,100.00
2022-10-18T06:21:54.055Z,100.00
2022-10-18T06:24:21.657Z,100.00
2022-10-18T06:26:49.367Z,100.00
2022-10-18T06:29:16.411Z,100.00
2022-10-18T06:31:43.431Z,100.00
2022-10-18T06:34:10.491Z,100.00
2022-10-18T06:36:37.468Z,100.00
2022-10-18T06:39:04.545Z,100.00
2022-10-18T06:41:31.694Z,100.00
2022-10-18T06:44:17.569Z,100.00
2022-10-18T06:46:47.030Z,100.00
2022-10-18T06:49:18.318Z,100.00
2022-10-18T06:51:46.458Z,100.00
2022-10-18T06:54:17.881Z,100.00
2022-10-18T06:56:47.923Z,100.00
2022-10-18T06:59:15.390Z,100.00
2022-10-18T07:01:43.468Z,100.00
2022-10-18T07:04:10.582Z,100.00
2022-10-18T07:06:37.576Z,100.00
2022-10-18T07:09:04.704Z,100.00
2022-10-18T07:11:31.768Z,100.00
2022-10-18T07:14:03.013Z,100.00
2022-10-18T07:16:31.374Z,100.00
2022-10-18T07:18:58.509Z,100.00
2022-10-18T07:21:26.695Z,100.00
2022-10-18T07:23:56.850Z,100.00
2022-10-18T07:26:29.196Z,100.00
2022-10-18T07:29:10.065Z,100.00
2022-10-18T07:31:38.673Z,100.00
2022-10-18T07:34:12.322Z,100.00
2022-10-18T07:36:40.156Z,100.00
2022-10-18T07:39:07.439Z,100.00
2022-10-18T07:41:34.789Z,100.00
2022-10-18T07:44:02.976Z,100.00
2022-10-18T07:46:30.696Z,100.00
2022-10-18T07:49:01.209Z,100.00
2022-10-18T07:51:28.368Z,100.00
2022-10-18T07:53:55.418Z,100.00
2022-10-18T07:56:23.183Z,100.00
2022-10-18T07:58:53.393Z,100.00
2022-10-18T08:01:22.857Z,100.00
2022-10-18T08:03:51.331Z,100.00
2022-10-18T08:06:20.764Z,100.00
2022-10-18T08:08:48.682Z,100.00
2022-10-18T08:11:21.161Z,100.00
2022-10-18T08:13:48.669Z,100.00
2022-10-18T08:16:25.531Z,100.00
2022-10-18T08:18:54.351Z,100.00
2022-10-18T08:21:21.824Z,100.00
2022-10-18T08:23:55.730Z,100.00
2022-10-18T08:26:24.275Z,100.00
2022-10-18T08:29:10.202Z,100.00
2022-10-18T08:31:37.637Z,100.00
2022-10-18T08:34:04.804Z,100.00
2022-10-18T08:36:31.973Z,100.00
2022-10-18T08:38:59.122Z,100.00
2022-10-18T08:41:38.178Z,100.00
2022-10-18T08:44:23.003Z,100.00
2022-10-18T08:47:02.958Z,100.00
2022-10-18T08:49:38.341Z,100.00
2022-10-18T08:52:29.848Z,100.00
2022-10-18T08:55:36.550Z,100.00
2022-10-18T08:58:24.831Z,100.00
2022-10-18T09:01:20.018Z,100.00
2022-10-18T09:04:08.909Z,100.00
2022-10-18T09:06:47.006Z,100.00
2022-10-18T09:09:44.946Z,97.85
2022-10-18T09:12:36.067Z,99.40
2022-10-18T09:15:33.643Z,100.00
2022-10-18T09:18:19.422Z,100.00
2022-10-18T09:20:54.228Z,100.00
2022-10-18T09:23:35.470Z,100.00
2022-10-18T09:26:25.464Z,100.00
2022-10-18T09:29:30.320Z,100.00
2022-10-18T09:32:57.313Z,100.00
2022-10-18T09:35:42.167Z,100.00
2022-10-18T09:38:18.332Z,100.00
2022-10-18T09:41:13.685Z,100.00
2022-10-18T09:43:58.406Z,100.00
2022-10-18T09:46:32.348Z,100.00
2022-10-18T09:49:25.452Z,100.00
2022-10-18T09:51:54.073Z,100.00
2022-10-18T09:54:38.110Z,100.00
2022-10-18T09:57:24.061Z,100.00
2022-10-18T09:59:51.205Z,100.00
2022-10-18T10:02:24.399Z,100.00
2022-10-18T10:04:54.216Z,96.77
2022-10-18T10:07:34.926Z,93.54
2022-10-18T10:10:22.206Z,91.54
2022-10-18T10:13:14.569Z,90.64
2022-10-18T10:15:52.625Z,85.77
2022-10-18T10:18:23.499Z,80.79
2022-10-18T10:20:57.478Z,77.34
2022-10-18T10:23:33.764Z,75.96
2022-10-18T10:26:28.632Z,70.18
2022-10-18T10:28:56.141Z,69.19
2022-10-18T10:31:31.207Z,66.33
2022-10-18T10:34:01.891Z,65.55
2022-10-18T10:36:31.978Z,65.93
2022-10-18T10:39:19.089Z,67.92
2022-10-18T10:41:59.124Z,68.56
2022-10-18T10:44:31.055Z,70.95
2022-10-18T10:46:59.533Z,70.94
2022-10-18T10:49:45.564Z,71.70
2022-10-18T10:52:29.598Z,71.38
2022-10-18T10:55:16.935Z,71.41
2022-10-18T10:57:48.964Z,71.27
2022-10-18T11:00:43.246Z,70.27
2022-10-18T11:03:29.037Z,66.99
2022-10-18T11:06:01.752Z,67.45
2022-10-18T11:08:39.035Z,67.62
2022-10-18T11:11:28.429Z,65.89
2022-10-18T11:14:26.608Z,65.42
2022-10-18T11:17:11.027Z,63.86
2022-10-18T11:20:23.308Z,63.08
2022-10-18T11:22:56.472Z,62.63
2022-10-18T11:25:29.515Z,60.99
2022-10-18T11:28:25.973Z,60.79
2022-10-18T11:31:32.808Z,60.36
2022-10-18T11:34:23.023Z,61.04
2022-10-18T11:37:27.135Z,59.91
2022-10-18T11:40:25.819Z,60.03
2022-10-18T11:43:00.094Z,58.71
2022-10-18T11:45:50.044Z,56.81
2022-10-18T11:48:47.890Z,55.08
2022-10-18T11:52:07.915Z,51.57
2022-10-18T11:54:45.984Z,49.17
2022-10-18T11:57:24.103Z,48.37
2022-10-18T12:00:39.617Z,49.32
2022-10-18T12:03:49.998Z,50.36
2022-10-18T12:06:22.583Z,51.14
2022-10-18T12:09:00.031Z,50.68
2022-10-18T12:11:32.630Z,49.93
2022-10-18T12:14:05.263Z,50.27
2022-10-18T12:16:50.982Z,51.67
2022-10-18T12:19:27.091Z,51.91
2022-10-18T12:22:10.432Z,52.36
2022-10-18T12:24:37.743Z,52.90
2022-10-18T12:27:05.153Z,52.26
2022-10-18T12:29:51.623Z,48.17
2022-10-18T12:32:30.282Z,44.05
2022-10-18T12:35:13.129Z,42.79
2022-10-18T12:38:30.892Z,44.11
2022-10-18T12:40:59.241Z,43.81
2022-10-18T12:43:34.107Z,42.53
2022-10-18T12:46:05.155Z,40.61
2022-10-18T12:48:39.078Z,39.98
2022-10-18T12:51:17.287Z,37.63
2022-10-18T12:53:47.933Z,36.15
2022-10-18T12:56:27.561Z,34.12
2022-10-18T12:59:13.967Z,33.32
2022-10-18T13:01:53.376Z,32.50
2022-10-18T13:04:43.618Z,32.13
2022-10-18T13:07:21.567Z,33.00
2022-10-18T13:10:33.463Z,33.49
2022-10-18T13:13:38.689Z,34.58
2022-10-18T13:16:35.992Z,36.64
2022-10-18T13:19:30.911Z,35.22
2022-10-18T13:22:41.322Z,33.51
2022-10-18T13:25:23.570Z,32.97
2022-10-18T13:28:25.804Z,31.96
2022-10-18T13:31:27.480Z,31.78
2022-10-18T13:33:56.979Z,32.30
2022-10-18T13:36:30.640Z,31.96
2022-10-18T13:38:57.686Z,32.81
2022-10-18T13:41:35.659Z,31.64
2022-10-18T13:44:43.523Z,31.35
2022-10-18T13:47:33.027Z,30.55
2022-10-18T13:53:21.418Z,28.57
2022-10-18T13:56:01.270Z,30.75
2022-10-18T13:58:48.823Z,31.50
2022-10-18T14:01:55.394Z,30.36
2022-10-18T14:05:10.895Z,30.60
2022-10-18T14:07:49.088Z,30.28
2022-10-18T14:10:43.833Z,30.34
2022-10-18T14:13:24.985Z,30.97
2022-10-18T14:15:59.232Z,32.05
2022-10-18T14:18:33.053Z,32.67
2022-10-18T14:21:22.009Z,31.67
2022-10-18T14:23:51.049Z,31.87
2022-10-18T14:26:22.844Z,33.74
2022-10-18T14:29:07.782Z,36.87
2022-10-18T14:31:35.167Z,39.78
2022-10-18T14:34:03.479Z,41.89
2022-10-18T14:36:40.740Z,44.97
2022-10-18T14:39:20.144Z,45.88
2022-10-18T14:41:51.361Z,48.42
2022-10-18T14:44:28.459Z,49.57
2022-10-18T14:47:00.436Z,50.25
2022-10-18T14:49:28.679Z,51.70
2022-10-18T14:51:59.624Z,53.67
2022-10-18T14:54:36.948Z,55.00
2022-10-18T14:57:06.175Z,55.69
2022-10-18T14:59:51.860Z,56.37
2022-10-18T15:02:28.744Z,58.90
2022-10-18T15:05:01.363Z,58.46
2022-10-18T15:07:29.378Z,60.34
2022-10-18T15:09:59.763Z,62.42
2022-10-18T15:12:33.925Z,63.56
2022-10-18T15:15:27.926Z,60.99
2022-10-18T15:17:55.613Z,59.02
2022-10-18T15:20:31.464Z,64.68
2022-10-18T15:23:32.656Z,64.17
2022-10-18T15:26:05.108Z,62.79
2022-10-18T15:28:53.932Z,57.49
2022-10-18T15:31:27.370Z,53.64
2022-10-18T15:34:15.802Z,54.87
2022-10-18T15:39:24.123Z,59.96
2022-10-18T15:42:03.576Z,64.82
2022-10-18T15:44:48.958Z,66.43
2022-10-18T15:47:24.156Z,67.39
2022-10-18T15:50:00.258Z,73.85
2022-10-18T15:52:38.659Z,75.00
2022-10-18T15:55:30.961Z,76.85
2022-10-18T15:58:05.993Z,79.33
2022-10-18T16:00:33.019Z,80.54
2022-10-18T16:03:00.136Z,81.57
2022-10-18T16:05:27.580Z,82.69
2022-10-18T16:07:54.990Z,83.05
2022-10-18T16:10:22.181Z,82.69
2022-10-18T16:12:49.491Z,85.19
2022-10-18T16:15:16.731Z,86.23
2022-10-18T16:17:43.791Z,86.03
2022-10-18T16:20:26.783Z,86.51
2022-10-18T16:22:53.827Z,87.12
2022-10-18T16:25:20.951Z,88.42
2022-10-18T16:27:47.994Z,89.32
2022-10-18T16:30:20.106Z,90.89
2022-10-18T16:32:48.803Z,92.49
2022-10-18T16:35:15.933Z,92.99
2022-10-18T16:37:43.270Z,93.49
2022-10-18T16:40:24.117Z,94.47
2022-10-18T16:42:51.707Z,93.29
2022-10-18T16:45:19.163Z,95.37
2022-10-18T16:47:46.515Z,96.37
2022-10-18T16:50:19.310Z,97.77
2022-10-18T16:52:46.328Z,99.08
2022-10-18T16:55:21.260Z,100.00
2022-10-18T16:57:50.250Z,99.58
2022-10-18T17:00:22.662Z,98.03
2022-10-18T17:02:50.277Z,99.29
2022-10-18T17:05:18.796Z,98.51
2022-10-18T17:07:47.275Z,98.64
2022-10-18T17:10:19.733Z,99.88
2022-10-18T17:12:46.861Z,100.00
2022-10-18T17:15:13.845Z,100.00
2022-10-18T17:17:41.155Z,100.00
2022-10-18T17:20:09.398Z,100.00
2022-10-18T17:22:36.478Z,100.00
2022-10-18T17:25:03.821Z,100.00
2022-10-18T17:27:31.349Z,100.00
2022-10-18T17:29:58.845Z,100.00
2022-10-18T17:32:25.901Z,100.00
2022-10-18T17:34:52.949Z,100.00
2022-10-18T17:37:19.930Z,100.00
2022-10-18T17:39:47.101Z,100.00
2022-10-18T17:42:14.270Z,100.00
2022-10-18T17:44:43.123Z,100.00
2022-10-18T17:47:10.188Z,100.00
2022-10-18T17:49:37.230Z,100.00
2022-10-18T17:52:06.983Z,100.00
2022-10-18T17:54:34.192Z,100.00
2022-10-18T17:57:01.213Z,100.00
2022-10-18T17:59:28.796Z,100.00
2022-10-18T18:01:55.911Z,100.00
2022-10-18T18:04:24.078Z,100.00
2022-10-18T18:06:52.761Z,100.00
2022-10-18T18:09:20.819Z,100.00
2022-10-18T18:11:48.809Z,100.00
2022-10-18T18:14:16.112Z,100.00
2022-10-18T18:16:46.043Z,100.00
2022-10-18T18:19:14.469Z,100.00
2022-10-18T18:21:42.784Z,100.00
2022-10-18T18:24:10.967Z,100.00
2022-10-18T18:26:39.287Z,100.00
2022-10-18T18:29:07.090Z,100.00
2022-10-18T18:31:38.893Z,100.00
2022-10-18T18:34:09.881Z,100.00
2022-10-18T18:36:37.203Z,100.00
2022-10-18T18:39:09.114Z,100.00
2022-10-18T18:41:37.715Z,100.00
2022-10-18T18:44:06.198Z,100.00
2022-10-18T18:46:41.010Z,100.00
2022-10-18T18:49:08.435Z,100.00
2022-10-18T18:51:39.620Z,100.00
2022-10-18T18:54:08.275Z,100.00
2022-10-18T18:56:36.489Z,100.00
2022-10-18T18:59:04.918Z,100.00
2022-10-18T19:01:36.368Z,100.00
2022-10-18T19:04:07.517Z,100.00
2022-10-18T19:06:37.130Z,100.00
2022-10-18T19:09:19.490Z,100.00
2022-10-18T19:11:49.866Z,100.00
2022-10-18T19:14:17.067Z,100.00
2022-10-18T19:16:53.799Z,100.00
2022-10-18T19:19:26.327Z,100.00
2022-10-18T19:21:56.860Z,100.00
2022-10-18T19:24:27.480Z,100.00
2022-10-18T19:26:58.333Z,100.00
2022-10-18T19:29:32.035Z,100.00
2022-10-18T19:32:02.776Z,100.00
2022-10-18T19:34:31.576Z,100.00
2022-10-18T19:36:58.716Z,100.00
2022-10-18T19:39:35.130Z,100.00
2022-10-18T19:42:06.407Z,100.00
2022-10-18T19:44:36.044Z,100.00
2022-10-18T19:47:05.637Z,100.00
2022-10-18T19:49:33.053Z,100.00
2022-10-18T19:52:00.087Z,100.00
2022-10-18T19:54:27.575Z,100.00
2022-10-18T19:56:55.131Z,100.00
2022-10-18T19:59:28.358Z,100.00
2022-10-18T20:01:55.802Z,100.00
2022-10-18T20:04:23.012Z,100.00
2022-10-18T20:06:50.594Z,100.00
2022-10-18T20:09:20.647Z,100.00
2022-10-18T20:11:47.999Z,100.00
2022-10-18T20:14:15.032Z,100.00
2022-10-18T20:16:45.193Z,100.00
2022-10-18T20:19:12.443Z,100.00
2022-10-18T20:21:40.130Z,100.00
2022-10-18T20:24:09.278Z,100.00
2022-10-18T20:26:36.376Z,100.00
2022-10-18T20:29:04.656Z,100.00
2022-10-18T20:31:35.567Z,100.00
2022-10-18T20:34:11.446Z,100.00
2022-10-18T20:36:40.481Z,100.00
2022-10-18T20:39:07.859Z,100.00
2022-10-18T20:41:41.137Z,100.00
2022-10-18T20:44:14.550Z,100.00
2022-10-18T20:46:43.834Z,100.00
2022-10-18T20:49:16.105Z,100.00
2022-10-18T20:51:43.227Z,100.00
2022-10-18T20:54:10.933Z,100.00
2022-10-18T20:56:38.995Z,100.00
2022-10-18T20:59:09.499Z,100.00
2022-10-18T21:01:38.866Z,100.00
2022-10-18T21:04:09.273Z,100.00
2022-10-18T21:06:43.867Z,100.00
2022-10-18T21:09:15.149Z,100.00
2022-10-18T21:11:45.183Z,100.00
2022-10-18T21:14:20.285Z,100.00
2022-10-18T21:16:49.718Z,100.00
2022-10-18T21:19:26.415Z,100.00
2022-10-18T21:21:56.736Z,100.00
2022-10-18T21:24:26.310Z,100.00
2022-10-18T21:26:54.658Z,100.00
2022-10-18T21:29:24.517Z,100.00
2022-10-18T21:31:58.005Z,100.00
2022-10-18T21:34:26.266Z,100.00
2022-10-18T21:36:53.423Z,100.00
2022-10-18T21:41:51.802Z,100.00
2022-10-18T21:44:19.588Z,100.00
2022-10-18T21:46:47.395Z,100.00
2022-10-18T21:49:16.028Z,100.00
2022-10-18T21:51:43.862Z,100.00
2022-10-18T21:54:16.053Z,100.00
2022-10-18T21:56:43.997Z,100.00
2022-10-18T21:59:13.008Z,100.00
2022-10-18T22:01:40.634Z,100.00
2022-10-18T22:04:21.780Z,100.00
2022-10-18T22:06:49.444Z,100.00
2022-10-18T22:09:16.863Z,100.00
2022-10-18T22:11:49.272Z,100.00
2022-10-18T22:14:17.026Z,100.00
2022-10-18T22:16:44.758Z,100.00
2022-10-18T22:19:13.010Z,100.00
2022-10-18T22:21:40.338Z,100.00
2022-10-18T22:24:09.148Z,100.00
2022-10-18T22:26:39.813Z,100.00
2022-10-18T22:29:14.495Z,100.00
2022-10-18T22:31:46.123Z,100.00
2022-10-18T22:34:20.466Z,100.00
2022-10-18T22:36:50.724Z,100.00
2022-10-18T22:39:17.966Z,100.00
2022-10-18T22:41:46.600Z,100.00
2022-10-18T22:44:16.376Z,100.00
2022-10-18T22:46:44.366Z,100.00
2022-10-18T22:49:12.046Z,100.00
2022-10-18T22:51:39.685Z,100.00
2022-10-18T22:54:06.696Z,100.00
2022-10-18T22:56:35.298Z,100.00
2022-10-18T22:59:02.633Z,100.00
2022-10-18T23:01:29.807Z,100.00
2022-10-18T23:04:00.199Z,100.00
2022-10-18T23:06:36.274Z,100.00
2022-10-18T23:09:08.473Z,100.00
2022-10-18T23:11:37.498Z,100.00
2022-10-18T23:14:07.337Z,100.00
2022-10-18T23:16:35.526Z,100.00
2022-10-18T23:19:03.073Z,100.00
2022-10-18T23:21:30.110Z,100.00
2022-10-18T23:23:57.827Z,100.00
2022-10-18T23:26:27.601Z,100.00
2022-10-18T23:28:55.290Z,100.00
2022-10-18T23:31:29.512Z,100.00
2022-10-18T23:34:01.161Z,100.00
2022-10-18T23:36:28.474Z,100.00
2022-10-18T23:38:56.274Z,100.00
2022-10-18T23:41:23.943Z,100.00
2022-10-18T23:43:51.885Z,100.00
2022-10-18T23:46:19.774Z,100.00
2022-10-18T23:48:47.635Z,100.00
2022-10-18T23:51:15.691Z,100.00
2022-10-18T23:53:42.899Z,100.00
2022-10-18T23:56:13.867Z,100.00
2022-10-18T23:58:42.196Z,100.00
